Terminal Aerodrome Forecast
Issued by NWS

Home | Current Version | Previous Version | Graphics & Text | Print | Product List | Glossary On
Versions: 1 2 3 4 5 6 7 8 9 10 11 12 13 14 15 16 17 18 19 20 21 22 23 24 25 26 27 28 29 30 31 32 33 34 35 36 37 38 39 40 41 42 43 44 45 46 47 48 49 50
000
FTUS43 KLOT 280154 AAA
TAFGYY
TAF AMD
KGYY 280154Z 2802/2824 06009KT P6SM VCSH BKN025 OVC050
     FM280500 09008KT 6SM BR VCSH SCT009 OVC015
     FM280900 09010G15KT 5SM -SHRA BR SCT008 OVC012
     FM281200 07012G16KT P6SM SCT007 OVC010
     FM281600 06014G20KT P6SM VCSH OVC015
     FM282100 05011KT P6SM OVC015=

USA.gov is the U.S. government's official web portal to all federal, state and local government web resources and services.